Time;durP1;ratioP1;P1;durP2;ratioP2;P2;SDS_P1;SDS_P2;PMS_P1;PMS_P2;Temp;Humidity;BMP_temperature;BMP_pressure;BME280_temperature;BME280_humidity;BME280_pressure;Samples;Min_cycle;Max_cycle;Signal;HPM_P1;HPM_P2
2023/12/10 00:00:40;;;;;;;30.85;4.22;;;;;;;-146.27;84.96;32967.97;5106508;28;20035;-69
2023/12/10 00:03:05;;;;;;;27.83;3.83;;;;;;;-146.27;85.13;32944.19;5084793;28;20050;-70
2023/12/10 00:05:30;;;;;;;38.72;5.00;;;;;;;-146.27;84.65;32878.72;5098348;28;20025;-69
2023/12/10 00:07:57;;;;;;;26.65;4.22;;;;;;;-146.27;84.97;32888.63;5097974;28;20020;-70
2023/12/10 00:10:22;;;;;;;40.35;4.45;;;;;;;-146.27;86.40;32977.91;5103645;28;20138;-70
2023/12/10 00:12:47;;;;;;;32.75;4.35;;;;;;;-146.27;86.97;33059.25;5104591;28;20027;-70
2023/12/10 00:15:13;;;;;;;35.28;3.67;;;;;;;-146.27;86.57;32999.72;5094648;28;20030;-70
2023/12/10 00:17:39;;;;;;;35.65;4.93;;;;;;;-146.27;87.25;32954.09;5096068;28;20085;-70
2023/12/10 00:20:05;;;;;;;36.03;3.88;;;;;;;-146.27;86.70;32969.97;5092334;28;20460;-70
2023/12/10 00:22:30;;;;;;;39.58;4.88;;;;;;;-146.27;86.51;33003.69;5091125;28;20089;-69
2023/12/10 00:24:56;;;;;;;40.50;4.78;;;;;;;-146.27;85.86;32950.13;5090353;28;20028;-71
2023/12/10 00:27:21;;;;;;;18.98;3.47;;;;;;;-146.27;85.26;33043.38;5090690;28;20027;-69
2023/12/10 00:29:46;;;;;;;47.35;5.25;;;;;;;-146.27;84.95;32967.97;5099420;28;20059;-71
2023/12/10 00:32:12;;;;;;;33.42;3.45;;;;;;;-146.27;84.53;32946.16;5103186;28;20031;-69
2023/12/10 00:34:37;;;;;;;32.35;4.50;;;;;;;-146.27;84.11;32993.78;5102127;28;20023;-70
2023/12/10 00:37:03;;;;;;;28.65;4.25;;;;;;;-146.27;84.25;33045.34;5093400;28;20066;-70
2023/12/10 00:39:29;;;;;;;24.90;4.53;;;;;;;-146.27;83.12;32995.75;5090679;28;20161;-70
2023/12/10 00:41:54;;;;;;;22.52;2.72;;;;;;;-146.27;83.05;32993.78;5071084;28;20040;-69
2023/12/10 00:44:20;;;;;;;32.70;4.43;;;;;;;-146.27;82.78;32932.28;5090019;28;20048;-72
2023/12/10 00:46:45;;;;;;;32.63;4.95;;;;;;;-146.27;82.93;32989.81;5106798;28;20473;-70
2023/12/10 00:49:11;;;;;;;19.80;3.42;;;;;;;-146.27;82.19;32962.03;5095314;28;20024;-70
2023/12/10 00:51:36;;;;;;;26.08;3.35;;;;;;;-146.27;81.85;32960.03;5094737;28;20028;-70
2023/12/10 00:54:03;;;;;;;29.67;3.90;;;;;;;-146.27;81.75;32948.13;5094826;28;20022;-69
2023/12/10 00:56:29;;;;;;;32.90;3.25;;;;;;;-146.27;80.87;32914.41;5093362;28;20031;-70
2023/12/10 00:58:54;;;;;;;28.85;3.95;;;;;;;-146.27;79.07;32896.56;5102425;28;20422;-72
2023/12/10 01:01:20;;;;;;;30.20;3.85;;;;;;;-146.27;77.92;32858.88;5095312;28;20027;-69
2023/12/10 01:03:45;;;;;;;17.17;3.63;;;;;;;-146.27;77.22;32870.78;5095958;28;20387;-71
2023/12/10 01:06:11;;;;;;;37.60;4.28;;;;;;;-146.27;76.34;32839.03;5093515;28;20542;-70
2023/12/10 01:08:37;;;;;;;21.65;2.47;;;;;;;-146.27;74.99;32779.50;5099478;28;20034;-70
2023/12/10 01:11:02;;;;;;;21.02;3.03;;;;;;;-146.27;74.68;32761.66;5098784;28;20027;-69
2023/12/10 01:13:28;;;;;;;30.80;3.22;;;;;;;-146.27;73.98;32720.00;5094202;28;20476;-69
2023/12/10 01:15:54;;;;;;;34.72;4.30;;;;;;;-146.27;73.76;32648.56;5094923;28;20030;-69
2023/12/10 01:18:21;;;;;;;27.73;4.35;;;;;;;-146.27;73.23;32727.94;5096336;28;20020;-69
2023/12/10 01:20:46;;;;;;;30.13;3.80;;;;;;;-146.27;72.01;32692.22;5086422;28;20115;-68
2023/12/10 01:23:14;;;;;;;32.25;3.72;;;;;;;-146.27;72.10;32664.44;5099821;28;20111;-70
2023/12/10 01:25:40;;;;;;;23.63;3.63;;;;;;;-146.27;71.64;32658.50;5078815;28;20475;-69
2023/12/10 01:28:05;;;;;;;29.50;4.75;;;;;;;-146.27;71.03;32688.25;5094966;28;20049;-69
2023/12/10 01:30:31;;;;;;;36.75;5.60;;;;;;;-146.27;71.18;32616.84;5098817;28;20051;-69
2023/12/10 01:33:00;;;;;;;31.20;3.75;;;;;;;-146.27;70.53;32622.78;5109645;28;20032;-70
2023/12/10 01:35:26;;;;;;;23.60;3.25;;;;;;;-146.27;70.71;32644.63;5111688;28;20026;-69
2023/12/10 01:37:51;;;;;;;21.70;3.47;;;;;;;-146.27;70.32;32610.88;5105885;28;20032;-70
2023/12/10 01:40:17;;;;;;;21.00;3.05;;;;;;;-146.27;70.98;32664.44;5106688;28;20533;-69
2023/12/10 01:42:49;;;;;;;22.60;4.35;;;;;;;-146.27;71.82;32579.16;5095521;28;20035;-69
2023/12/10 01:45:15;;;;;;;21.38;4.10;;;;;;;-146.27;72.15;32672.38;5101257;28;20102;-68
2023/12/10 01:47:44;;;;;;;24.15;3.47;;;;;;;-146.27;73.35;32704.13;5093416;28;20026;-69
2023/12/10 01:50:13;;;;;;;28.52;3.38;;;;;;;-146.27;73.26;32716.03;5096921;28;20039;-70
2023/12/10 01:52:44;;;;;;;25.45;4.07;;;;;;;-146.27;73.07;32716.03;5096385;28;20356;-70
2023/12/10 01:55:11;;;;;;;29.27;4.95;;;;;;;-146.27;74.80;32787.44;5099032;28;20427;-69
2023/12/10 01:57:37;;;;;;;27.15;4.40;;;;;;;-146.27;76.35;32799.34;5100806;28;20053;-69
2023/12/10 02:00:07;;;;;;;17.45;3.65;;;;;;;-146.27;76.94;32934.25;5107476;28;20019;-69
2023/12/10 02:02:34;;;;;;;35.03;4.82;;;;;;;-146.27;76.48;32803.31;5099026;28;20030;-70
2023/12/10 02:05:06;;;;;;;26.25;3.30;;;;;;;-146.27;76.19;32866.81;5094116;28;20038;-69
2023/12/10 02:07:32;;;;;;;22.08;5.13;;;;;;;-146.27;75.56;32852.91;5094958;28;20166;-70
2023/12/10 02:09:57;;;;;;;25.65;4.55;;;;;;;-146.27;75.90;32799.34;5111038;28;20488;-70
2023/12/10 02:12:23;;;;;;;28.85;4.57;;;;;;;-146.27;77.30;32850.94;5095735;27;20073;-69
2023/12/10 02:14:49;;;;;;;31.65;4.80;;;;;;;-146.27;77.56;32841.00;5109834;28;20042;-70
2023/12/10 02:17:14;;;;;;;48.35;4.97;;;;;;;-146.27;79.36;32954.09;5094429;28;20032;-70
2023/12/10 02:19:40;;;;;;;32.20;4.15;;;;;;;-146.27;81.35;32971.94;5106638;28;20356;-69
2023/12/10 02:22:05;;;;;;;37.50;5.13;;;;;;;-146.27;82.37;33053.28;5107647;28;20480;-69
2023/12/10 02:24:38;;;;;;;23.85;4.18;;;;;;;-146.27;82.67;33009.66;5106247;28;20061;-70
2023/12/10 02:27:04;;;;;;;27.10;3.92;;;;;;;-146.27;82.47;32997.75;5099259;28;20111;-70
2023/12/10 02:29:29;;;;;;;28.33;3.97;;;;;;;-146.27;83.06;33041.38;5107901;28;20131;-70
2023/12/10 02:31:54;;;;;;;29.98;4.10;;;;;;;-146.27;82.81;33001.72;5111550;28;20039;-69
2023/12/10 02:34:21;;;;;;;27.27;3.45;;;;;;;-146.27;82.58;33017.56;5105125;28;20034;-71
2023/12/10 02:36:47;;;;;;;29.40;4.80;;;;;;;-146.27;82.59;33033.44;5094013;28;20020;-69
2023/12/10 02:39:12;;;;;;;29.85;4.05;;;;;;;-146.27;82.60;33015.59;5103026;28;20786;-69
2023/12/10 02:41:37;;;;;;;24.98;4.43;;;;;;;-146.27;83.33;33001.72;5097755;28;20460;-70
2023/12/10 02:44:03;;;;;;;32.63;4.72;;;;;;;-146.27;82.87;32948.13;5107921;28;20023;-70
2023/12/10 02:46:29;;;;;;;33.33;5.18;;;;;;;-146.27;83.04;32985.84;5108024;28;20122;-69
2023/12/10 02:48:54;;;;;;;31.83;3.95;;;;;;;-146.27;83.23;33039.41;5101785;28;20069;-70
2023/12/10 02:51:19;;;;;;;39.08;5.32;;;;;;;-146.27;83.25;32995.75;5085453;28;20470;-69
2023/12/10 02:53:45;;;;;;;23.40;4.43;;;;;;;-146.27;83.14;33007.66;5097759;28;20039;-69
2023/12/10 02:56:10;;;;;;;37.03;4.20;;;;;;;-146.27;83.13;33005.69;5098472;28;20535;-69
2023/12/10 02:58:36;;;;;;;31.70;4.43;;;;;;;-146.27;82.82;33049.31;5101160;28;20034;-70
2023/12/10 03:01:01;;;;;;;36.13;6.35;;;;;;;-146.27;82.44;32975.91;5098834;28;20078;-70
2023/12/10 03:03:26;;;;;;;33.15;4.50;;;;;;;-146.27;82.11;32942.19;5100060;28;20107;-69
2023/12/10 03:05:52;;;;;;;22.90;4.00;;;;;;;-146.27;82.36;33017.56;5108876;28;20652;-70
2023/12/10 03:08:17;;;;;;;34.55;5.10;;;;;;;-146.27;82.47;32969.97;5105391;28;20047;-69
2023/12/10 03:10:43;;;;;;;37.35;4.68;;;;;;;-146.27;82.53;33013.63;5098621;28;20035;-69
2023/12/10 03:13:08;;;;;;;29.33;3.45;;;;;;;-146.27;83.08;33055.28;5104959;28;20482;-69
2023/12/10 03:15:34;;;;;;;29.63;3.90;;;;;;;-146.27;83.55;33021.53;5099405;28;20027;-70
2023/12/10 03:18:01;;;;;;;26.60;4.40;;;;;;;-146.27;83.78;33009.66;5096256;28;20027;-70
2023/12/10 03:20:26;;;;;;;28.45;4.15;;;;;;;-146.27;83.45;32997.75;5098331;28;20106;-69
2023/12/10 03:22:52;;;;;;;22.67;3.63;;;;;;;-146.27;83.17;33065.19;5093174;28;20118;-69
2023/12/10 03:25:17;;;;;;;31.05;4.45;;;;;;;-146.27;81.95;33013.63;5094468;28;20032;-69
2023/12/10 03:27:42;;;;;;;32.55;4.72;;;;;;;-146.27;81.64;32936.25;5110372;28;20051;-70
2023/12/10 03:30:08;;;;;;;31.25;3.67;;;;;;;-146.27;82.03;33003.69;5092039;28;20510;-70
2023/12/10 03:32:34;;;;;;;28.63;4.22;;;;;;;-146.27;81.48;33013.63;5095603;28;20034;-70
2023/12/10 03:34:59;;;;;;;37.03;4.95;;;;;;;-146.27;80.65;32910.44;5096505;28;20032;-70
2023/12/10 03:37:25;;;;;;;29.02;4.10;;;;;;;-146.27;80.26;32944.19;5109821;28;20030;-69
2023/12/10 03:39:50;;;;;;;33.63;4.35;;;;;;;-146.27;79.53;32892.59;5103351;28;20039;-69
2023/12/10 03:42:16;;;;;;;29.05;3.45;;;;;;;-146.27;78.80;32902.50;5099469;28;20106;-70
2023/12/10 03:44:41;;;;;;;22.20;4.07;;;;;;;-146.27;77.67;32890.59;5108795;28;20028;-70
2023/12/10 03:47:06;;;;;;;26.90;4.63;;;;;;;-146.27;76.97;32839.03;5098534;28;20051;-70
2023/12/10 03:49:32;;;;;;;25.38;3.92;;;;;;;-146.27;76.42;32823.16;5100153;28;20464;-70
2023/12/10 03:51:58;;;;;;;22.23;3.30;;;;;;;-146.27;76.26;32831.09;5098768;28;20077;-68
2023/12/10 03:54:23;;;;;;;34.25;4.28;;;;;;;-146.27;76.21;32833.06;5095097;28;20019;-68
2023/12/10 03:56:49;;;;;;;28.88;3.65;;;;;;;-146.27;76.13;32827.13;5099806;28;20466;-69
2023/12/10 03:59:14;;;;;;;40.20;5.45;;;;;;;-146.27;75.22;32716.03;5101261;28;20026;-69
2023/12/10 04:01:42;;;;;;;31.17;3.35;;;;;;;-146.27;74.89;32763.63;5103384;28;20705;-68
2023/12/10 04:04:08;;;;;;;32.13;3.80;;;;;;;-146.27;73.86;32789.44;5095109;28;20016;-69
2023/12/10 04:06:38;;;;;;;35.35;3.72;;;;;;;-146.27;73.58;32692.22;5101851;28;20028;-71
2023/12/10 04:09:03;;;;;;;30.35;4.20;;;;;;;-146.27;73.79;32765.63;5110681;28;20488;-70
2023/12/10 04:11:28;;;;;;;32.08;4.35;;;;;;;-146.27;73.31;32688.25;5108716;28;20035;-70
2023/12/10 04:13:54;;;;;;;24.10;3.75;;;;;;;-146.27;72.52;32710.06;5095880;28;20024;-68
2023/12/10 04:16:26;;;;;;;25.42;3.35;;;;;;;-146.27;72.59;32702.13;5096723;28;20098;-69
2023/12/10 04:18:51;;;;;;;20.35;3.58;;;;;;;-146.27;72.21;32668.41;5092729;28;20031;-69
2023/12/10 04:21:21;;;;;;;34.67;4.28;;;;;;;-146.27;72.53;32712.06;5103876;28;20081;-69
2023/12/10 04:23:47;;;;;;;18.90;3.80;;;;;;;-146.27;72.33;32680.31;5101329;28;20058;-69
2023/12/10 04:26:12;;;;;;;28.77;4.30;;;;;;;-146.27;71.83;32640.66;5104494;28;20476;-69
2023/12/10 04:28:38;;;;;;;25.50;3.40;;;;;;;-146.27;71.74;32656.50;5099589;28;20484;-70
2023/12/10 04:31:04;;;;;;;23.30;3.90;;;;;;;-146.27;71.69;32664.44;5109485;28;20662;-69
2023/12/10 04:33:30;;;;;;;33.65;3.90;;;;;;;-146.27;71.42;32704.13;5103418;28;20027;-71
2023/12/10 04:35:55;;;;;;;30.77;4.40;;;;;;;-146.27;70.87;32598.97;5099430;28;20073;-69
2023/12/10 04:38:21;;;;;;;21.30;3.10;;;;;;;-146.27;71.22;32642.63;5102142;28;20433;-68
2023/12/10 04:40:46;;;;;;;20.95;3.17;;;;;;;-146.27;70.99;32696.19;5091465;28;20042;-69
2023/12/10 04:43:12;;;;;;;28.73;3.17;;;;;;;-146.27;71.40;32692.22;5096098;28;20019;-70
2023/12/10 04:45:37;;;;;;;22.60;3.80;;;;;;;-146.27;70.77;32595.03;5099983;28;20524;-69
2023/12/10 04:48:03;;;;;;;20.40;4.35;;;;;;;-146.27;71.37;32652.53;5095209;28;20036;-70
2023/12/10 04:50:28;;;;;;;24.15;4.18;;;;;;;-146.27;71.41;32731.91;5096383;28;20132;-70
2023/12/10 04:52:53;;;;;;;25.17;3.50;;;;;;;-146.27;70.80;32593.03;5099367;28;20032;-69
2023/12/10 04:55:19;;;;;;;22.80;3.10;;;;;;;-146.27;71.24;32660.47;5095251;28;20123;-69
2023/12/10 04:57:44;;;;;;;21.40;3.60;;;;;;;-146.27;71.33;32660.47;5106529;28;20494;-70
2023/12/10 05:00:11;;;;;;;22.30;3.60;;;;;;;-146.27;72.06;32757.69;5106083;28;20378;-69
2023/12/10 05:02:36;;;;;;;32.92;3.60;;;;;;;-146.27;71.53;32680.31;5089620;28;20103;-69
2023/12/10 05:05:02;;;;;;;22.08;3.10;;;;;;;-146.27;71.17;32644.63;5075983;28;20127;-69
2023/12/10 05:07:28;;;;;;;27.40;4.53;;;;;;;-146.27;71.50;32803.31;5094213;28;20023;-69
2023/12/10 05:09:54;;;;;;;25.85;3.72;;;;;;;-146.27;70.74;32577.16;5101526;28;20043;-68
2023/12/10 05:12:19;;;;;;;26.67;4.22;;;;;;;-146.27;70.99;32664.44;5090426;28;20032;-71
2023/12/10 05:14:45;;;;;;;23.63;3.13;;;;;;;-146.27;70.98;32696.19;5100503;28;20031;-70
2023/12/10 05:17:10;;;;;;;29.08;4.95;;;;;;;-146.27;71.61;32793.41;5098220;28;20019;-69
2023/12/10 05:19:36;;;;;;;28.58;3.67;;;;;;;-146.27;71.58;32700.16;5104786;28;20475;-69
2023/12/10 05:22:01;;;;;;;31.38;4.03;;;;;;;-146.27;71.99;32747.78;5100634;28;20024;-70
2023/12/10 05:24:27;;;;;;;23.90;3.35;;;;;;;-146.27;71.40;32666.44;5106189;28;20038;-70
2023/12/10 05:26:52;;;;;;;31.85;4.90;;;;;;;-146.27;71.34;32597.00;5095495;28;20464;-69
2023/12/10 05:29:17;;;;;;;36.50;4.88;;;;;;;-146.27;71.33;32676.34;5094831;28;20040;-69
2023/12/10 05:31:43;;;;;;;25.80;3.97;;;;;;;-146.27;71.37;32704.13;5104951;28;20028;-70
2023/12/10 05:34:08;;;;;;;27.70;4.07;;;;;;;-146.27;71.33;32686.28;5109466;28;20368;-69
2023/12/10 05:36:34;;;;;;;20.48;3.38;;;;;;;-146.27;71.36;32668.41;5108684;28;20554;-69
2023/12/10 05:38:59;;;;;;;28.75;3.67;;;;;;;-146.27;71.66;32720.00;5088846;28;20728;-69
2023/12/10 05:41:24;;;;;;;26.27;3.97;;;;;;;-146.27;71.44;32650.56;5092739;28;20067;-69
2023/12/10 05:43:50;;;;;;;38.72;4.32;;;;;;;-146.27;72.01;32757.69;5074201;28;20494;-69
2023/12/10 05:46:15;;;;;;;19.00;3.15;;;;;;;-146.27;71.02;32646.59;5110434;28;20032;-69
2023/12/10 05:48:41;;;;;;;36.35;4.80;;;;;;;-146.27;71.03;32676.34;5102520;28;20073;-69
2023/12/10 05:51:06;;;;;;;32.33;3.75;;;;;;;-146.27;71.36;32708.09;5101450;28;20031;-69
2023/12/10 05:53:31;;;;;;;28.95;4.10;;;;;;;-146.27;71.19;32684.28;5090389;28;20055;-69
2023/12/10 05:55:57;;;;;;;22.88;2.72;;;;;;;-146.27;71.28;32735.88;5091773;28;20076;-69
2023/12/10 05:58:22;;;;;;;27.15;3.60;;;;;;;-146.27;71.03;32672.38;5103417;28;20027;-69
2023/12/10 06:00:48;;;;;;;22.05;3.05;;;;;;;-146.27;70.97;32636.69;5109693;28;20031;-69
2023/12/10 06:03:14;;;;;;;27.92;3.70;;;;;;;-146.27;70.51;32678.34;5096547;28;20178;-69
2023/12/10 06:05:39;;;;;;;23.77;3.95;;;;;;;-146.27;70.26;32668.41;5105912;28;20028;-70
2023/12/10 06:08:04;;;;;;;26.27;3.80;;;;;;;-146.27;70.22;32684.28;5105226;28;21764;-68
2023/12/10 06:10:30;;;;;;;26.70;3.88;;;;;;;-146.27;70.67;32723.97;5093695;28;20107;-69
2023/12/10 06:12:55;;;;;;;29.90;4.10;;;;;;;-146.27;70.15;32704.13;5099300;28;20032;-69
2023/12/10 06:15:21;;;;;;;29.58;3.53;;;;;;;-146.27;70.15;32718.00;5105004;28;20020;-70
2023/12/10 06:17:46;;;;;;;15.45;2.72;;;;;;;-146.27;70.12;32700.16;5099817;28;20024;-70
2023/12/10 06:20:11;;;;;;;17.88;3.67;;;;;;;-146.27;69.43;32606.91;5107004;28;20030;-70
2023/12/10 06:22:37;;;;;;;29.40;4.78;;;;;;;-146.27;69.15;32604.94;5111868;28;20015;-70
2023/12/10 06:25:02;;;;;;;32.53;4.63;;;;;;;-146.27;69.28;32610.88;5098523;28;20024;-70
2023/12/10 06:27:28;;;;;;;22.48;3.38;;;;;;;-146.27;69.99;32676.34;5106319;28;20077;-70
2023/12/10 06:29:54;;;;;;;20.83;3.63;;;;;;;-146.27;69.90;32692.22;5094922;28;20101;-70
2023/12/10 06:32:19;;;;;;;28.33;3.63;;;;;;;-146.27;69.91;32652.53;5102848;28;20099;-70
2023/12/10 06:34:45;;;;;;;19.42;3.25;;;;;;;-146.27;70.00;32628.75;5099930;28;20020;-70
2023/12/10 06:37:10;;;;;;;20.52;3.95;;;;;;;-146.27;70.09;32696.19;5101992;28;20425;-70
2023/12/10 06:39:35;;;;;;;31.27;3.92;;;;;;;-146.27;70.26;32716.03;5108398;28;20020;-70
2023/12/10 06:42:01;;;;;;;17.25;3.13;;;;;;;-146.27;70.29;32706.09;5108096;28;20023;-69
2023/12/10 06:44:27;;;;;;;31.98;4.85;;;;;;;-146.27;70.08;32688.25;5099776;28;20035;-70
2023/12/10 06:46:52;;;;;;;23.98;4.25;;;;;;;-146.27;70.17;32696.19;5097751;28;20016;-69
2023/12/10 06:49:18;;;;;;;22.17;4.22;;;;;;;-146.27;70.04;32716.03;5096973;28;20053;-69
2023/12/10 06:51:43;;;;;;;29.45;3.15;;;;;;;-146.27;70.32;32698.19;5095459;28;20443;-68
2023/12/10 06:54:10;;;;;;;20.65;2.47;;;;;;;-146.27;70.47;32735.88;5100739;28;20023;-69
2023/12/10 06:56:40;;;;;;;31.48;3.92;;;;;;;-146.27;70.12;32680.31;5097291;28;20110;-70
2023/12/10 06:59:08;;;;;;;22.75;3.80;;;;;;;-146.27;69.99;32696.19;5099457;28;20052;-68
2023/12/10 07:01:35;;;;;;;28.73;3.85;;;;;;;-146.27;69.58;32650.56;5100288;28;20028;-69
2023/12/10 07:04:01;;;;;;;32.25;4.75;;;;;;;-146.27;68.86;32612.88;5092658;28;20078;-70
2023/12/10 07:06:26;;;;;;;18.42;3.00;;;;;;;-146.27;69.10;32636.69;5101480;28;20087;-70
2023/12/10 07:08:51;;;;;;;27.73;4.50;;;;;;;-146.27;69.25;32628.75;5102280;28;20137;-69
2023/12/10 07:11:17;;;;;;;22.02;3.03;;;;;;;-146.27;70.18;32763.63;5075921;28;20031;-69
2023/12/10 07:13:42;;;;;;;28.05;3.30;;;;;;;-146.27;70.67;32787.44;5105488;28;20024;-71
2023/12/10 07:16:08;;;;;;;26.65;3.60;;;;;;;-146.27;70.05;32708.09;5092329;28;20111;-72
2023/12/10 07:18:33;;;;;;;22.15;3.10;;;;;;;-146.27;69.82;32775.53;5093134;28;20024;-70
2023/12/10 07:20:59;;;;;;;25.92;4.32;;;;;;;-146.27;70.10;32773.56;5103581;28;20036;-70
2023/12/10 07:23:25;;;;;;;28.10;4.35;;;;;;;-146.27;70.44;32769.59;5093542;28;20442;-70
2023/12/10 07:25:50;;;;;;;22.83;4.47;;;;;;;-146.27;70.85;32757.69;5098551;28;20161;-71
2023/12/10 07:28:16;;;;;;;31.00;4.50;;;;;;;-146.27;70.51;32714.03;5095395;28;20077;-70
2023/12/10 07:30:42;;;;;;;33.25;4.03;;;;;;;-146.27;70.46;32731.91;5099883;28;20046;-70
2023/12/10 07:33:07;;;;;;;21.13;3.58;;;;;;;-146.27;70.31;32692.22;5096287;28;20024;-71
2023/12/10 07:35:32;;;;;;;24.17;3.28;;;;;;;-146.27;70.43;32725.94;5100679;28;20047;-70
2023/12/10 07:37:58;;;;;;;24.58;3.60;;;;;;;-146.27;70.66;32723.97;5096124;28;20053;-69
2023/12/10 07:40:23;;;;;;;33.13;3.90;;;;;;;-146.27;70.65;32721.97;5103303;28;20678;-70
2023/12/10 07:42:49;;;;;;;31.73;3.97;;;;;;;-146.27;70.53;32688.25;5099943;28;20084;-71
2023/12/10 07:45:15;;;;;;;16.67;3.15;;;;;;;-146.27;71.22;32791.41;5092885;28;20027;-70
2023/12/10 07:47:40;;;;;;;27.75;3.42;;;;;;;-146.27;70.66;32690.25;5092408;28;20064;-70
2023/12/10 07:50:06;;;;;;;22.65;3.70;;;;;;;-146.27;71.00;32700.16;5091522;28;20101;-70
2023/12/10 07:52:32;;;;;;;23.65;3.60;;;;;;;-146.27;71.04;32720.00;5099081;28;20042;-69
2023/12/10 07:54:57;;;;;;;25.60;3.97;;;;;;;-146.27;70.52;32720.00;5095387;28;20023;-69
2023/12/10 07:57:22;;;;;;;26.83;3.20;;;;;;;-146.27;71.07;32767.59;5095649;28;20098;-70
2023/12/10 07:59:48;;;;;;;26.33;3.60;;;;;;;-146.27;71.30;32720.00;5097510;28;20032;-70
2023/12/10 08:02:13;;;;;;;16.80;2.55;;;;;;;-146.27;71.22;32698.19;5092130;28;20356;-70
2023/12/10 08:04:39;;;;;;;28.35;3.63;;;;;;;-146.27;71.08;32749.75;5105412;28;20503;-70
2023/12/10 08:07:04;;;;;;;31.23;4.20;;;;;;;-146.27;71.26;32755.69;5093303;28;20028;-71
2023/12/10 08:09:30;;;;;;;17.15;2.75;;;;;;;-146.27;70.61;32652.53;5099724;28;20077;-72
2023/12/10 08:11:55;;;;;;;18.55;3.10;;;;;;;-146.27;71.58;32799.34;5096097;28;20031;-69
2023/12/10 08:14:20;;;;;;;19.15;3.17;;;;;;;-146.27;71.86;32757.69;5095726;28;20052;-70
2023/12/10 08:16:46;;;;;;;34.83;3.97;;;;;;;-146.27;71.39;32725.94;5093141;28;20023;-71
2023/12/10 08:19:12;;;;;;;21.17;2.63;;;;;;;-146.27;71.34;32721.97;5073265;28;20032;-70
2023/12/10 08:21:37;;;;;;;24.20;3.45;;;;;;;-146.27;71.46;32741.81;5091231;28;20498;-70
2023/12/10 08:24:03;;;;;;;16.90;3.13;;;;;;;-146.27;70.29;32696.19;5104577;28;20102;-71
2023/12/10 08:26:29;;;;;;;20.20;3.20;;;;;;;-146.27;70.11;32672.38;5107956;28;20092;-69
2023/12/10 08:28:54;;;;;;;27.05;3.88;;;;;;;-146.27;70.70;32708.09;5099364;28;20403;-70
2023/12/10 08:31:19;;;;;;;22.35;3.97;;;;;;;-146.27;70.28;32648.56;5097516;28;20043;-71
2023/12/10 08:33:46;;;;;;;21.52;3.97;;;;;;;-146.27;71.36;32704.13;5094879;28;20035;-70
2023/12/10 08:36:12;;;;;;;18.27;2.85;;;;;;;-146.27;71.03;32652.53;5094630;28;20133;-69
2023/12/10 08:38:37;;;;;;;20.38;2.70;;;;;;;-146.27;70.56;32636.69;5106239;28;20012;-68
2023/12/10 08:41:03;;;;;;;29.10;4.05;;;;;;;-146.27;71.38;32704.13;5094532;28;20027;-68
2023/12/10 08:43:30;;;;;;;21.15;3.10;;;;;;;-146.27;71.42;32644.63;5099347;28;20019;-69
2023/12/10 08:45:57;;;;;;;23.38;3.90;;;;;;;-146.27;71.08;32652.53;5095273;28;20062;-71
2023/12/10 08:48:23;;;;;;;22.90;3.33;;;;;;;-146.27;71.25;32716.03;5077081;28;20022;-70
2023/12/10 08:50:48;;;;;;;29.58;4.82;;;;;;;-146.27;71.03;32668.41;5100414;28;20028;-70
2023/12/10 08:53:13;;;;;;;26.40;3.67;;;;;;;-146.27;70.23;32577.16;5090180;28;20102;-71
2023/12/10 08:55:39;;;;;;;26.52;3.80;;;;;;;-146.27;71.36;32688.25;5092043;28;20035;-70
2023/12/10 08:58:04;;;;;;;19.42;3.47;;;;;;;-146.27;71.83;32741.81;5091872;28;20115;-70
2023/12/10 09:00:29;;;;;;;27.60;3.47;;;;;;;-146.27;71.05;32755.69;5097709;28;20027;-70
2023/12/10 09:02:55;;;;;;;15.52;3.33;;;;;;;-146.27;71.51;32720.00;5100472;28;20122;-71
2023/12/10 09:05:21;;;;;;;21.00;2.72;;;;;;;-146.27;70.97;32616.84;5104152;28;20020;-71
2023/12/10 09:07:46;;;;;;;22.90;3.33;;;;;;;-146.27;71.06;32698.19;5095433;28;20030;-69
2023/12/10 09:10:12;;;;;;;19.85;3.63;;;;;;;-146.27;70.95;32680.31;5097147;28;20020;-71
2023/12/10 09:12:37;;;;;;;18.73;2.58;;;;;;;-146.27;71.17;32708.09;5095718;28;20020;-70
2023/12/10 09:15:03;;;;;;;24.45;3.17;;;;;;;-146.27;70.84;32686.28;5094721;28;20107;-70
2023/12/10 09:17:28;;;;;;;25.73;3.03;;;;;;;-146.27;71.03;32680.31;5095984;28;20106;-70
2023/12/10 09:19:53;;;;;;;27.33;3.55;;;;;;;-146.27;70.14;32555.34;5092110;28;20027;-70
2023/12/10 09:22:19;;;;;;;26.15;4.20;;;;;;;-146.27;71.39;32700.16;5096476;28;20059;-70
2023/12/10 09:24:44;;;;;;;19.27;3.08;;;;;;;-146.27;70.77;32648.56;5098126;28;20106;-70
2023/12/10 09:27:10;;;;;;;21.70;3.60;;;;;;;-146.27;70.95;32680.31;5093973;28;20072;-70
2023/12/10 09:29:38;;;;;;;20.92;2.53;;;;;;;-146.27;69.61;32501.78;5099025;28;20043;-68
2023/12/10 09:32:09;;;;;;;18.95;2.92;;;;;;;-146.27;69.58;32557.31;5090265;28;20487;-70
2023/12/10 09:34:35;;;;;;;14.77;2.90;;;;;;;-146.27;69.54;32450.22;5095968;28;20019;-69
2023/12/10 09:37:01;;;;;;;22.25;3.53;;;;;;;-146.27;68.77;32495.84;5109280;28;20080;-69
2023/12/10 09:39:26;;;;;;;28.02;4.25;;;;;;;-146.27;68.87;32466.06;5099334;28;20029;-69
2023/12/10 09:41:53;;;;;;;22.50;2.55;;;;;;;-146.27;68.63;32464.09;5091177;28;20040;-71
2023/12/10 09:44:18;;;;;;;21.65;3.13;;;;;;;-146.27;68.06;32386.72;5089942;28;20039;-71
2023/12/10 09:46:44;;;;;;;18.90;3.47;;;;;;;-146.27;68.27;32400.63;5103556;28;20488;-71
2023/12/10 09:49:10;;;;;;;25.90;3.53;;;;;;;-146.27;68.52;32440.28;5095004;28;20046;-71
2023/12/10 09:51:35;;;;;;;23.48;3.90;;;;;;;-146.27;68.91;32466.06;5106538;28;20043;-70
2023/12/10 09:54:01;;;;;;;21.83;3.10;;;;;;;-146.27;68.80;32454.16;5107564;28;20027;-72
2023/12/10 09:56:26;;;;;;;23.58;3.78;;;;;;;-146.27;68.08;32315.31;5092984;28;20102;-70
2023/12/10 09:58:52;;;;;;;21.77;3.85;;;;;;;-146.27;68.31;32335.16;5093633;28;20027;-70
2023/12/10 10:01:17;;;;;;;16.83;3.58;;;;;;;-146.27;67.29;32247.88;5076007;28;20020;-70
2023/12/10 10:03:42;;;;;;;24.73;4.18;;;;;;;-146.27;67.11;32327.22;5076439;28;20157;-70
2023/12/10 10:06:08;;;;;;;21.25;3.15;;;;;;;-146.27;67.12;32295.47;5102836;28;20102;-69
2023/12/10 10:08:35;;;;;;;23.55;2.95;;;;;;;-146.27;65.67;32196.31;5093641;28;20020;-70
2023/12/10 10:11:00;;;;;;;18.35;2.78;;;;;;;-146.27;65.04;32130.84;5093296;28;20027;-70
2023/12/10 10:13:26;;;;;;;38.13;3.17;;;;;;;-146.27;64.22;32007.88;5095424;28;20492;-70
2023/12/10 10:15:53;;;;;;;25.40;4.10;;;;;;;-146.27;63.79;32140.75;5108026;28;20032;-72
2023/12/10 10:18:20;;;;;;;19.63;2.75;;;;;;;-146.27;63.84;32069.34;5084263;28;20035;-68
2023/12/10 10:20:46;;;;;;;19.55;3.50;;;;;;;-146.27;64.76;32180.44;5111504;28;20027;-68
2023/12/10 10:23:13;;;;;;;14.88;2.80;;;;;;;-146.27;65.48;32283.59;5113541;28;20020;-68
2023/12/10 10:25:40;;;;;;;16.63;2.42;;;;;;;-146.27;65.11;32239.94;5104735;28;20074;-71
2023/12/10 10:28:09;;;;;;;23.40;2.90;;;;;;;-146.27;64.76;32081.25;5092806;28;20133;-68
2023/12/10 10:30:35;;;;;;;13.13;2.17;;;;;;;-146.27;64.79;32263.75;5104828;28;20044;-68
2023/12/10 10:33:00;;;;;;;19.05;2.70;;;;;;;-146.27;64.31;32061.44;5098267;28;20030;-69
2023/12/10 10:35:26;;;;;;;19.75;2.80;;;;;;;-146.27;64.62;32232.00;5095171;28;20110;-69
2023/12/10 10:37:52;;;;;;;17.20;2.65;;;;;;;-146.27;66.01;32394.66;5102801;28;20505;-68
2023/12/10 10:40:18;;;;;;;24.48;3.40;;;;;;;-146.27;65.97;32319.28;5082099;28;20051;-70
2023/12/10 10:42:45;;;;;;;16.27;2.42;;;;;;;-146.27;65.85;32192.34;5095959;28;20484;-68
2023/12/10 10:45:10;;;;;;;20.75;2.90;;;;;;;-146.27;64.21;31918.63;5095377;28;20042;-68
2023/12/10 10:47:37;;;;;;;19.60;2.97;;;;;;;-146.27;61.90;31684.59;5091622;28;20016;-69
2023/12/10 10:50:04;;;;;;;22.08;3.20;;;;;;;-146.27;60.45;31688.53;5077657;28;20487;-69
2023/12/10 10:52:33;;;;;;;16.48;3.35;;;;;;;-146.27;59.93;31561.63;5096765;28;20019;-70
2023/12/10 10:54:59;;;;;;;22.52;3.70;;;;;;;-146.27;60.17;31698.47;5076156;28;20032;-69
2023/12/10 10:57:31;;;;;;;15.82;2.80;;;;;;;-146.27;61.17;31783.75;5101745;28;20027;-68
2023/12/10 10:59:58;;;;;;;20.05;2.88;;;;;;;-146.27;60.23;31712.34;5112476;28;20077;-67
2023/12/10 11:02:23;;;;;;;15.57;3.08;;;;;;;-146.27;59.98;31662.75;5112075;28;20038;-68